Terminal Aerodrome Forecast
Issued by NWS

Home | Current Version | Previous Version | Text Only | Print | Product List | Glossary On
Versions: 1 2 3 4 5 6 7 8 9 10 11 12 13
000
FTUS43 KIND 242320
TAFBMG
TAF
KBMG 242320Z 2500/2524 21008KT P6SM FEW070 SCT250
     FM250200 17003KT P6SM BKN200
     FM250500 18003KT P6SM VCSH BKN050 BKN150
     FM251400 20007KT P6SM SCT050 BKN150
     FM252000 21010KT P6SM VCTS BKN050CB OVC100
      AMD LTD TO CLD VIS AND WIND 2501/2513=

USA.gov is the U.S. government's official web portal to all federal, state and local government web resources and services.